Donalds, South Carolina
Current Conditions -  °F | °C
As of 12:56 AM on Friday 31 Oct 2014 (Local Time) from KGRD Reporting Station
Clear Clear  
Wind Chill: 44°   Ceiling: Unl
Heat Index: 44°   Visibility: 10mi
Dew Point: 41°   Wind: 0mph
Humidity: 89%   Direction: NA
Pressure: 29.97"   Gusts: NA
Location:  34.38°N, 82.35°W
Report Text: KGRD 310456Z AUTO 00000KT 10SM CLR 07/05 A2997 RMK AO2 SLP147 T00670050 402060061
Loading
Personal Weather Stations






























Interactive Weather Map
Tropical Storm Tracking
New forecast layout! Learn more

10-Day Weather Forecast

Advertisements
Track Severe Weather on mobile